createdAt,value
2023-01-12T00:01:18.901Z,9.15
2023-01-12T00:04:25.681Z,9.00
2023-01-12T00:07:29.398Z,11.45
2023-01-12T00:10:31.490Z,11.25
2023-01-12T00:13:34.960Z,11.02
2023-01-12T00:16:38.777Z,10.18
2023-01-12T00:19:41.144Z,9.52
2023-01-12T00:22:44.069Z,8.48
2023-01-12T00:25:51.374Z,9.63
2023-01-12T00:28:53.433Z,9.80
2023-01-12T00:31:57.456Z,10.60
2023-01-12T00:35:00.801Z,10.43
2023-01-12T00:38:06.449Z,9.13
2023-01-12T00:41:10.721Z,8.05
2023-01-12T00:44:31.799Z,9.77
2023-01-12T00:47:34.188Z,10.05
2023-01-12T00:50:37.273Z,10.07
2023-01-12T00:53:39.512Z,9.70
2023-01-12T00:56:41.585Z,9.07
2023-01-12T00:59:46.064Z,10.13
2023-01-12T01:02:48.700Z,11.27
2023-01-12T01:05:52.150Z,11.63
2023-01-12T01:08:55.836Z,9.30
2023-01-12T01:11:59.095Z,10.38
2023-01-12T01:15:01.497Z,9.65
2023-01-12T01:18:04.471Z,9.18
2023-01-12T01:21:09.098Z,7.32
2023-01-12T01:24:13.180Z,9.00
2023-01-12T01:27:15.383Z,10.20
2023-01-12T01:30:18.811Z,10.10
2023-01-12T01:33:20.870Z,9.25
2023-01-12T01:36:23.046Z,9.27
2023-01-12T01:39:25.812Z,8.98
2023-01-12T01:42:28.661Z,8.68
2023-01-12T01:45:36.684Z,10.65
2023-01-12T01:48:40.691Z,8.40
2023-01-12T01:51:44.167Z,8.90
2023-01-12T01:54:55.280Z,8.05
2023-01-12T01:58:03.006Z,10.70
2023-01-12T02:01:07.189Z,7.45
2023-01-12T02:04:09.969Z,8.13
2023-01-12T02:07:14.029Z,8.43
2023-01-12T02:10:19.395Z,8.70
2023-01-12T02:13:41.394Z,8.98
2023-01-12T02:17:25.231Z,8.80
2023-01-12T02:20:36.111Z,7.63
2023-01-12T02:24:08.011Z,9.10
2023-01-12T02:27:43.172Z,7.53
2023-01-12T02:31:04.057Z,7.35
2023-01-12T02:34:35.369Z,7.55
2023-01-12T02:37:50.332Z,7.95
2023-01-12T02:41:45.766Z,8.45
2023-01-12T02:45:06.359Z,6.50
2023-01-12T02:48:18.566Z,9.07
2023-01-12T02:51:33.573Z,8.10
2023-01-12T02:54:37.395Z,7.20
2023-01-12T02:57:40.086Z,8.43
2023-01-12T03:00:44.567Z,7.57
2023-01-12T03:03:49.036Z,7.28
2023-01-12T03:06:59.846Z,7.80
2023-01-12T03:10:17.251Z,7.35
2023-01-12T03:13:20.689Z,8.30
2023-01-12T03:16:27.556Z,8.60
2023-01-12T03:19:33.594Z,7.43
2023-01-12T03:22:38.312Z,7.18
2023-01-12T03:25:44.993Z,6.95
2023-01-12T03:28:54.856Z,8.38
2023-01-12T03:31:57.296Z,7.70
2023-01-12T03:35:00.667Z,7.82
2023-01-12T03:38:30.159Z,7.60
2023-01-12T03:41:39.715Z,7.10
2023-01-12T03:44:54.609Z,6.68
2023-01-12T03:48:06.364Z,9.00
2023-01-12T03:51:20.569Z,7.68
2023-01-12T03:54:24.712Z,7.72
2023-01-12T03:57:28.607Z,8.93
2023-01-12T04:00:31.391Z,9.15
2023-01-12T04:03:35.992Z,8.13
2023-01-12T04:06:38.756Z,8.77
2023-01-12T04:09:41.781Z,9.50
2023-01-12T04:12:45.173Z,9.93
2023-01-12T04:15:48.469Z,9.25
2023-01-12T04:18:53.569Z,8.20
2023-01-12T04:22:14.393Z,9.93
2023-01-12T04:25:20.235Z,9.82
2023-01-12T04:28:23.244Z,10.05
2023-01-12T04:31:25.616Z,8.48
2023-01-12T04:34:29.095Z,9.07
2023-01-12T04:37:34.168Z,7.35
2023-01-12T04:40:37.859Z,9.15
2023-01-12T04:43:40.204Z,9.52
2023-01-12T04:46:43.083Z,8.77
2023-01-12T04:49:46.245Z,8.18
2023-01-12T04:52:48.837Z,10.13
2023-01-12T04:55:56.852Z,9.65
2023-01-12T04:59:01.528Z,9.35
2023-01-12T05:02:04.362Z,10.00
2023-01-12T05:05:09.884Z,10.40
2023-01-12T05:08:36.478Z,11.20
2023-01-12T05:11:40.504Z,10.77
2023-01-12T05:14:43.069Z,9.82
2023-01-12T05:17:48.428Z,8.93
2023-01-12T05:20:51.372Z,10.93
2023-01-12T05:23:55.072Z,12.25
2023-01-12T05:26:57.194Z,11.30
2023-01-12T05:29:59.947Z,11.07
2023-01-12T05:33:03.699Z,11.13
2023-01-12T05:36:07.226Z,9.13
2023-01-12T05:39:09.301Z,12.27
2023-01-12T05:42:30.206Z,12.30
2023-01-12T05:45:32.209Z,10.00
2023-01-12T05:48:35.599Z,12.70
2023-01-12T05:51:37.799Z,11.23
2023-01-12T05:54:40.173Z,9.48
2023-01-12T05:57:42.186Z,10.85
2023-01-12T06:00:44.256Z,10.35
2023-01-12T06:03:54.143Z,10.48
2023-01-12T06:06:56.321Z,10.82
2023-01-12T06:10:06.369Z,12.90
2023-01-12T06:13:28.211Z,13.07
2023-01-12T06:16:31.829Z,11.90
2023-01-12T06:19:34.519Z,6.32
2023-01-12T06:22:37.603Z,8.40
2023-01-12T06:25:40.108Z,9.05
2023-01-12T06:28:45.259Z,8.45
2023-01-12T06:31:52.237Z,10.38
2023-01-12T06:34:54.680Z,9.55
2023-01-12T06:37:57.850Z,11.23
2023-01-12T06:41:32.612Z,9.45
2023-01-12T06:44:35.075Z,8.65
2023-01-12T06:47:52.354Z,9.18
2023-01-12T06:51:05.243Z,8.82
2023-01-12T06:54:08.261Z,6.03
2023-01-12T06:57:11.780Z,10.35
2023-01-12T07:00:14.972Z,9.48
2023-01-12T07:03:19.737Z,9.93
2023-01-12T07:06:21.977Z,8.13
2023-01-12T07:09:25.616Z,9.13
2023-01-12T07:12:27.743Z,9.90
2023-01-12T07:15:30.931Z,9.98
2023-01-12T07:18:35.759Z,9.95
2023-01-12T07:21:38.677Z,9.18
2023-01-12T07:24:40.923Z,8.75
2023-01-12T07:27:51.840Z,9.18
2023-01-12T07:30:59.668Z,8.45
2023-01-12T07:34:01.799Z,8.33
2023-01-12T07:37:03.865Z,9.07
2023-01-12T07:40:06.468Z,10.73
2023-01-12T07:43:09.498Z,8.18
2023-01-12T07:46:12.143Z,8.07
2023-01-12T07:49:14.885Z,7.55
2023-01-12T07:52:17.046Z,8.77
2023-01-12T07:55:20.024Z,9.52
2023-01-12T07:58:22.182Z,8.73
2023-01-12T08:01:24.464Z,8.63
2023-01-12T08:04:26.617Z,9.75
2023-01-12T08:07:32.498Z,9.70
2023-01-12T08:10:35.220Z,10.23
2023-01-12T08:13:39.125Z,10.27
2023-01-12T08:16:46.539Z,8.57
2023-01-12T08:19:56.335Z,7.70
2023-01-12T08:23:02.355Z,6.88
2023-01-12T08:26:07.622Z,7.20
2023-01-12T08:29:29.950Z,7.55
2023-01-12T08:32:33.125Z,8.88
2023-01-12T08:35:36.012Z,9.60
2023-01-12T08:38:38.275Z,8.27
2023-01-12T08:41:42.438Z,8.20
2023-01-12T08:44:45.055Z,8.80
2023-01-12T08:47:47.207Z,8.88
2023-01-12T08:50:49.330Z,11.75
2023-01-12T08:53:51.404Z,10.50
2023-01-12T08:56:54.965Z,8.25
2023-01-12T08:59:57.988Z,10.18
2023-01-12T09:03:01.428Z,10.65
2023-01-12T09:06:23.457Z,9.40
2023-01-12T09:09:29.714Z,8.65
2023-01-12T09:12:33.679Z,10.10
2023-01-12T09:15:36.298Z,9.82
2023-01-12T09:18:41.431Z,9.25
2023-01-12T09:21:43.889Z,10.02
2023-01-12T09:24:46.235Z,8.43
2023-01-12T09:27:48.611Z,8.80
2023-01-12T09:30:51.039Z,11.48
2023-01-12T09:33:54.738Z,10.38
2023-01-12T09:36:59.628Z,10.05
2023-01-12T09:40:04.087Z,10.07
2023-01-12T09:43:27.729Z,9.18
2023-01-12T09:46:54.633Z,9.18
2023-01-12T09:50:10.704Z,8.90
2023-01-12T09:53:24.832Z,8.45
2023-01-12T09:56:38.664Z,8.80
2023-01-12T09:59:46.470Z,8.30
2023-01-12T10:02:53.550Z,8.98
2023-01-12T10:06:00.844Z,8.10
2023-01-12T10:09:05.807Z,7.88
2023-01-12T10:12:24.198Z,9.13
2023-01-12T10:15:45.358Z,7.97
2023-01-12T10:18:51.084Z,7.95
2023-01-12T10:21:54.491Z,8.27
2023-01-12T10:24:56.658Z,10.65
2023-01-12T10:28:06.275Z,8.68
2023-01-12T10:31:15.908Z,9.52
2023-01-12T10:34:18.912Z,8.88
2023-01-12T10:37:21.110Z,7.93
2023-01-12T10:40:26.160Z,7.32
2023-01-12T10:43:34.234Z,9.80
2023-01-12T10:46:37.022Z,8.50
2023-01-12T10:49:40.909Z,8.77
2023-01-12T10:52:43.067Z,8.02
2023-01-12T10:55:47.647Z,9.05
2023-01-12T10:59:19.742Z,8.88
2023-01-12T11:02:52.715Z,8.43
2023-01-12T11:06:41.590Z,11.60
2023-01-12T11:09:44.274Z,8.65
2023-01-12T11:13:03.278Z,8.68
2023-01-12T11:16:20.515Z,8.43
2023-01-12T11:19:31.475Z,8.27
2023-01-12T11:22:37.588Z,8.05
2023-01-12T11:25:49.984Z,8.25
2023-01-12T11:28:56.488Z,9.60
2023-01-12T11:32:06.781Z,8.55
2023-01-12T11:35:41.939Z,9.90
2023-01-12T11:38:50.391Z,8.07
2023-01-12T11:42:17.694Z,8.98
2023-01-12T11:45:48.709Z,9.05
2023-01-12T11:49:16.001Z,9.00
2023-01-12T11:52:18.064Z,8.45
2023-01-12T11:55:27.535Z,8.68
2023-01-12T11:58:56.958Z,9.07
2023-01-12T12:02:21.659Z,8.68
2023-01-12T12:05:49.807Z,8.10
2023-01-12T12:09:31.381Z,8.38
2023-01-12T12:12:58.289Z,9.95
2023-01-12T12:16:03.621Z,11.73
2023-01-12T12:19:09.375Z,8.13
2023-01-12T12:22:30.621Z,9.98
2023-01-12T12:25:55.421Z,8.82
2023-01-12T12:29:16.703Z,8.77
2023-01-12T12:33:07.042Z,10.40
2023-01-12T12:40:13.343Z,8.73
2023-01-12T12:44:53.573Z,9.80
2023-01-12T12:48:07.736Z,9.70
2023-01-12T12:51:51.996Z,11.23
2023-01-12T12:55:23.892Z,8.88
2023-01-12T12:58:41.753Z,8.32
2023-01-12T13:02:03.633Z,8.10
2023-01-12T13:05:11.770Z,8.63
2023-01-12T13:08:26.781Z,8.90
2023-01-12T13:11:47.353Z,8.77
2023-01-12T13:15:17.637Z,8.85
2023-01-12T13:19:09.239Z,9.27
2023-01-12T13:22:46.187Z,13.73
2023-01-12T13:25:57.100Z,10.27
2023-01-12T13:29:23.854Z,9.30
2023-01-12T13:32:36.821Z,9.65
2023-01-12T13:35:40.814Z,10.02
2023-01-12T13:39:04.606Z,10.25
2023-01-12T13:42:42.810Z,10.00
2023-01-12T13:46:00.707Z,9.77
2023-01-12T13:49:04.525Z,9.55
2023-01-12T13:52:20.227Z,10.30
2023-01-12T13:55:26.076Z,9.48
2023-01-12T13:58:38.952Z,9.10
2023-01-12T14:01:44.581Z,8.88
2023-01-12T14:05:04.790Z,10.68
2023-01-12T14:08:34.455Z,9.65
2023-01-12T14:11:45.474Z,8.57
2023-01-12T14:15:22.643Z,8.63
2023-01-12T14:18:54.386Z,7.03
2023-01-12T14:22:01.370Z,8.38
2023-01-12T14:25:40.285Z,10.93
2023-01-12T14:31:52.965Z,8.20
2023-01-12T14:34:55.176Z,8.48
2023-01-12T14:38:04.870Z,8.77
2023-01-12T14:41:35.973Z,8.05
2023-01-12T14:45:07.801Z,8.70
2023-01-12T14:48:30.065Z,9.18
2023-01-12T14:51:37.716Z,8.02
2023-01-12T14:54:47.573Z,8.50
2023-01-12T14:57:55.938Z,9.00
2023-01-12T15:01:00.378Z,7.05
2023-01-12T15:04:08.755Z,9.57
2023-01-12T15:07:18.384Z,7.85
2023-01-12T15:10:21.234Z,8.45
2023-01-12T15:13:33.771Z,8.70
2023-01-12T15:16:55.895Z,8.73
2023-01-12T15:20:19.443Z,9.00
2023-01-12T15:24:01.691Z,8.98
2023-01-12T15:27:09.697Z,8.38
2023-01-12T15:30:12.662Z,10.23
2023-01-12T15:33:16.622Z,9.50
2023-01-12T15:36:20.406Z,8.32
2023-01-12T15:39:22.564Z,9.20
2023-01-12T15:42:26.507Z,10.00
2023-01-12T15:45:41.890Z,9.82
2023-01-12T15:48:55.920Z,9.43
2023-01-12T15:52:05.199Z,8.93
2023-01-12T15:55:13.086Z,9.50
2023-01-12T15:58:20.102Z,10.07
2023-01-12T16:01:24.800Z,8.98
2023-01-12T16:04:43.980Z,9.80
2023-01-12T16:07:48.892Z,9.55
2023-01-12T16:11:10.053Z,8.85
2023-01-12T16:14:13.229Z,9.20
2023-01-12T16:17:17.109Z,7.53
2023-01-12T16:20:22.266Z,10.27
2023-01-12T16:23:38.302Z,10.85
2023-01-12T16:26:41.497Z,10.07
2023-01-12T16:29:45.473Z,10.82
2023-01-12T16:32:49.440Z,12.90
2023-01-12T16:35:55.977Z,9.93
2023-01-12T16:39:01.763Z,10.45
2023-01-12T16:42:10.220Z,9.98
2023-01-12T16:45:20.674Z,10.82
2023-01-12T16:48:23.106Z,9.20
2023-01-12T16:51:26.875Z,8.68
2023-01-12T16:54:34.101Z,8.82
2023-01-12T16:57:44.687Z,9.50
2023-01-12T17:00:47.388Z,9.88
2023-01-12T17:03:54.203Z,10.05
2023-01-12T17:06:58.004Z,9.70
2023-01-12T17:10:21.359Z,9.88
2023-01-12T17:13:25.057Z,11.60
2023-01-12T17:16:31.018Z,9.40
2023-01-12T17:19:36.114Z,10.88
2023-01-12T17:22:39.401Z,10.60
2023-01-12T17:25:43.140Z,10.98
2023-01-12T17:28:50.292Z,11.32
2023-01-12T17:31:57.987Z,10.68
2023-01-12T17:35:03.366Z,10.18
2023-01-12T17:38:05.753Z,12.95
2023-01-12T17:41:09.453Z,12.05
2023-01-12T17:44:13.212Z,11.13
2023-01-12T17:47:15.450Z,13.27
2023-01-12T17:50:17.769Z,14.00
2023-01-12T17:53:22.073Z,12.57
2023-01-12T17:56:24.654Z,10.80
2023-01-12T17:59:27.592Z,11.35
2023-01-12T18:02:30.151Z,11.27
2023-01-12T18:05:32.300Z,10.10
2023-01-12T18:08:36.449Z,10.30
2023-01-12T18:11:42.835Z,9.63
2023-01-12T18:14:45.322Z,9.70
2023-01-12T18:17:48.136Z,9.80
2023-01-12T18:20:52.929Z,11.07
2023-01-12T18:23:56.588Z,9.93
2023-01-12T18:27:02.529Z,12.73
2023-01-12T18:30:07.326Z,12.77
2023-01-12T18:33:15.382Z,11.77
2023-01-12T18:36:22.001Z,14.30
2023-01-12T18:39:25.056Z,13.40
2023-01-12T18:42:47.136Z,14.45
2023-01-12T18:45:49.545Z,14.23
2023-01-12T18:48:52.102Z,13.65
2023-01-12T18:52:12.925Z,14.02
2023-01-12T18:55:15.775Z,12.15
2023-01-12T18:58:18.039Z,11.35
2023-01-12T19:01:22.657Z,14.52
2023-01-12T19:04:46.579Z,11.57
2023-01-12T19:07:53.137Z,11.00
2023-01-12T19:11:00.827Z,11.30
2023-01-12T19:14:23.007Z,11.77
2023-01-12T19:17:29.619Z,10.18
2023-01-12T19:20:34.101Z,11.82
2023-01-12T19:23:54.560Z,10.65
2023-01-12T19:27:16.546Z,10.02
2023-01-12T19:30:19.995Z,12.25
2023-01-12T19:33:23.121Z,10.38
2023-01-12T19:36:25.184Z,11.00
2023-01-12T19:39:49.267Z,10.80
2023-01-12T19:43:31.982Z,11.50
2023-01-12T19:46:34.253Z,11.70
2023-01-12T19:49:36.399Z,11.85
2023-01-12T19:52:40.776Z,11.48
2023-01-12T19:55:46.589Z,10.13
2023-01-12T19:58:49.167Z,10.23
2023-01-12T20:01:54.617Z,10.93
2023-01-12T20:04:56.993Z,12.02
2023-01-12T20:08:19.077Z,12.60
2023-01-12T20:11:22.685Z,12.77
2023-01-12T20:14:26.942Z,11.88
2023-01-12T20:17:29.077Z,11.15
2023-01-12T20:20:32.472Z,13.95
2023-01-12T20:23:34.478Z,13.55
2023-01-12T20:26:36.803Z,12.70
2023-01-12T20:29:40.071Z,13.85
2023-01-12T20:32:46.395Z,12.95
2023-01-12T20:35:49.775Z,14.63
2023-01-12T20:38:52.412Z,14.25
2023-01-12T20:41:55.098Z,14.00
2023-01-12T20:45:02.075Z,14.05
2023-01-12T20:48:04.759Z,13.48
2023-01-12T20:51:08.705Z,14.20
2023-01-12T20:54:10.845Z,13.38
2023-01-12T20:57:21.866Z,13.88
2023-01-12T21:00:26.055Z,14.60
2023-01-12T21:03:29.699Z,14.02
2023-01-12T21:06:39.556Z,13.57
2023-01-12T21:09:41.851Z,14.77
2023-01-12T21:12:45.062Z,14.45
2023-01-12T21:15:49.316Z,14.75
2023-01-12T21:18:52.872Z,14.45
2023-01-12T21:21:57.008Z,13.73
2023-01-12T21:24:59.233Z,13.82
2023-01-12T21:28:01.287Z,14.00
2023-01-12T21:31:04.437Z,12.43
2023-01-12T21:34:07.535Z,13.10
2023-01-12T21:37:11.689Z,13.77
2023-01-12T21:40:15.394Z,11.98
2023-01-12T21:43:22.589Z,13.55
2023-01-12T21:46:26.114Z,13.38
2023-01-12T21:49:31.627Z,12.57
2023-01-12T21:52:45.645Z,12.32
2023-01-12T21:55:57.252Z,12.38
2023-01-12T21:58:59.503Z,11.73
2023-01-12T22:02:03.770Z,12.52
2023-01-12T22:05:14.654Z,12.98
2023-01-12T22:08:18.253Z,13.15
2023-01-12T22:11:20.446Z,12.77
2023-01-12T22:14:26.043Z,11.88
2023-01-12T22:17:28.067Z,12.27
2023-01-12T22:20:34.459Z,11.82
2023-01-12T22:23:38.118Z,10.75
2023-01-12T22:26:41.279Z,11.85
2023-01-12T22:30:13.508Z,11.57
2023-01-12T22:33:16.183Z,11.60
2023-01-12T22:36:18.746Z,12.10
2023-01-12T22:39:20.752Z,11.30
2023-01-12T22:42:46.509Z,10.85
2023-01-12T22:46:08.161Z,9.98
2023-01-12T22:49:10.795Z,10.48
2023-01-12T22:52:14.394Z,12.77
2023-01-12T22:55:22.996Z,12.23
2023-01-12T23:01:27.716Z,11.88
2023-01-12T23:04:30.462Z,10.70
2023-01-12T23:07:33.104Z,10.98
2023-01-12T23:10:37.511Z,11.57
2023-01-12T23:13:41.074Z,10.25
2023-01-12T23:16:46.403Z,11.13
2023-01-12T23:19:48.621Z,10.60
2023-01-12T23:22:54.037Z,10.05
2023-01-12T23:26:06.879Z,10.68
2023-01-12T23:29:09.976Z,9.77
2023-01-12T23:32:16.301Z,10.50
2023-01-12T23:35:19.000Z,10.88
2023-01-12T23:38:21.120Z,11.57
2023-01-12T23:41:26.483Z,10.82
2023-01-12T23:44:29.669Z,10.40
2023-01-12T23:47:33.062Z,10.73
2023-01-12T23:50:35.599Z,10.05
2023-01-12T23:53:38.193Z,10.02
2023-01-12T23:56:42.010Z,10.23
2023-01-12T23:59:44.250Z,10.50
